This is the latest recevied weather packets stored in our database for station/object NA4DL. If no packets are shown the sender has not sent any weather packets the latest 10 day(s).
| Time | Temp. | Humidity | Pressure | Rain* | Wind** | Luminosity | Snow |
|---|---|---|---|---|---|---|---|
| 1777857038 | 15° C | 66% | 1014.5 hPa | 0 mm | - | 0 W/m² | - |
| 1777855219 | 17.22° C | 55% | 1014.7 hPa | 0 mm | - | 2 W/m² | - |
| 1777854619 | 17.22° C | 53% | 1014.6 hPa | 0 mm | - | 6 W/m² | - |
| 1777854019 | 17.78° C | 50% | 1014.7 hPa | 0 mm | - | 11 W/m² | - |
| 1777852217 | 20° C | 45% | 1014.9 hPa | 0 mm | - | 38 W/m² | - |
| 1777851037 | 20.56° C | 44% | 1015.2 hPa | 0 mm | - | 86 W/m² | - |
| 1777849218 | 21.11° C | 44% | 1015.3 hPa | 0 mm | - | 174 W/m² | - |
| 1777848018 | 21.11° C | 43% | 1015.3 hPa | 0 mm | - | 235 W/m² | - |
| 1777842039 | 20° C | 46% | 1016.7 hPa | 0 mm | - | 656 W/m² | - |
| 1777840840 | 20.56° C | 46% | 1017 hPa | 0 mm | - | 726 W/m² | - |
| 1777837218 | 19.44° C | 46% | 1018.2 hPa | 0 mm | - | 898 W/m² | - |
| 1777830016 | 16.67° C | 49% | 1019.6 hPa | 0 mm | - | 1034 W/m² | - |
| 1777826418 | 15.56° C | 51% | 1020.4 hPa | 0 mm | - | 959 W/m² | - |
| 1777824618 | 14.44° C | 52% | 1020.7 hPa | 0 mm | - | 152 W/m² | - |
| 1777819222 | 12.78° C | 55% | 1021 hPa | 0 mm | - | 37 W/m² | - |
| 1777814427 | 8.33° C | 95% | 1021 hPa | 0 mm | - | 28 W/m² | - |
| 1777809028 | 2.78° C | 99% | 1020.4 hPa | 0 mm | - | 18 W/m² | - |
| 1777808428 | 2.22° C | 99% | 1020.3 hPa | 0 mm | - | 15 W/m² | - |
| 1777807828 | 2.22° C | 99% | 1020.1 hPa | 0 mm | - | 12 W/m² | - |
| 1777807228 | 2.22° C | 99% | 1020 hPa | 0 mm | - | 9 W/m² | - |
| 1777806629 | 2.22° C | 99% | 1019.8 hPa | 0 mm | - | 5 W/m² | - |
| 1777803629 | 2.22° C | 99% | 1019.4 hPa | 0 mm | - | 0 W/m² | - |
| 1777802430 | 2.22° C | 99% | 1019.4 hPa | 0 mm | - | 0 W/m² | - |
| 1777795832 | 3.33° C | 99% | 1019.3 hPa | 0 mm | - | 0 W/m² | - |
| 1777794032 | 3.89° C | 99% | 1019.2 hPa | 0 mm | - | 0 W/m² | - |
* Rain latest hour (hover to see other rain measurements)
** Current wind speed in m/s (hover to see current wind gust speed)